Time;durP1;ratioP1;P1;durP2;ratioP2;P2;SDS_P1;SDS_P2;PMS_P1;PMS_P2;Temp;Humidity;BMP_temperature;BMP_pressure;BME280_temperature;BME280_humidity;BME280_pressure;Samples;Min_cycle;Max_cycle;Signal;HPM_P1;HPM_P2
2023/07/06 00:00:53;;;;;;;10.40;3.67;;;22.60;53.90;;;;;;5032400;28;20068;-48
2023/07/06 00:03:20;;;;;;;13.05;4.28;;;22.60;54.00;;;;;;5032042;28;20497;-45
2023/07/06 00:05:47;;;;;;;13.77;4.57;;;22.60;54.00;;;;;;5029822;28;20026;-48
2023/07/06 00:08:14;;;;;;;8.25;3.63;;;22.60;54.00;;;;;;5032665;28;20344;-44
2023/07/06 00:10:44;;;;;;;10.93;4.15;;;22.60;54.20;;;;;;5032360;28;20057;-44
2023/07/06 00:13:11;;;;;;;8.90;3.95;;;22.60;54.20;;;;;;5034638;28;20033;-48
2023/07/06 00:15:37;;;;;;;8.23;3.75;;;22.60;54.20;;;;;;5034471;28;20144;-45
2023/07/06 00:18:04;;;;;;;9.88;4.15;;;22.60;54.20;;;;;;5033306;28;20509;-47
2023/07/06 00:20:32;;;;;;;10.90;3.95;;;22.60;54.40;;;;;;5034663;28;20400;-44
2023/07/06 00:22:59;;;;;;;10.10;4.20;;;22.60;54.40;;;;;;5034616;28;20448;-44
2023/07/06 00:25:26;;;;;;;10.10;3.88;;;22.60;54.50;;;;;;5034258;28;20033;-41
2023/07/06 00:27:54;;;;;;;6.30;3.35;;;22.60;54.50;;;;;;5034422;28;20030;-42
2023/07/06 00:30:30;;;;;;;6.85;3.42;;;22.60;54.60;;;;;;5033354;28;20489;-44
2023/07/06 00:32:57;;;;;;;7.28;3.53;;;22.60;54.60;;;;;;5034425;28;20459;-41
2023/07/06 00:35:24;;;;;;;8.77;3.70;;;22.60;54.60;;;;;;5034091;28;20022;-47
2023/07/06 00:37:51;;;;;;;10.95;3.85;;;22.60;54.60;;;;;;5033146;28;20029;-44
2023/07/06 00:40:17;;;;;;;8.85;3.80;;;22.60;54.70;;;;;;5033045;28;20026;-41
2023/07/06 00:42:44;;;;;;;9.00;3.42;;;22.60;54.80;;;;;;5034271;28;20029;-42
2023/07/06 00:45:10;;;;;;;7.97;3.53;;;22.60;54.70;;;;;;5033944;28;20083;-43
2023/07/06 00:47:41;;;;;;;8.88;3.90;;;22.60;54.70;;;;;;5034167;28;20105;-41
2023/07/06 00:50:11;;;;;;;11.15;3.80;;;22.60;54.80;;;;;;5032990;28;20504;-42
2023/07/06 00:52:51;;;;;;;8.30;3.67;;;22.60;54.80;;;;;;5034450;28;20033;-41
2023/07/06 00:55:19;;;;;;;7.95;3.72;;;22.60;54.90;;;;;;5033548;28;20053;-41
2023/07/06 00:57:51;;;;;;;8.07;3.90;;;22.60;54.90;;;;;;5033806;28;20105;-44
2023/07/06 01:00:20;;;;;;;8.52;3.35;;;22.60;55.00;;;;;;5033871;28;20028;-43
2023/07/06 01:02:51;;;;;;;10.32;3.38;;;22.60;54.90;;;;;;5033823;28;20052;-44
2023/07/06 01:05:18;;;;;;;11.50;4.05;;;22.60;55.00;;;;;;5032247;28;20385;-42
2023/07/06 01:07:47;;;;;;;8.30;4.03;;;22.60;55.00;;;;;;5033630;28;20119;-45
2023/07/06 01:10:14;;;;;;;6.70;3.35;;;22.60;55.00;;;;;;5033820;28;20033;-46
2023/07/06 01:12:40;;;;;;;6.55;3.33;;;22.60;54.90;;;;;;5032356;28;20029;-42
2023/07/06 01:15:06;;;;;;;7.00;3.70;;;22.60;55.00;;;;;;5032101;28;20433;-41
2023/07/06 01:18:06;;;;;;;7.55;3.75;;;22.60;55.10;;;;;;5032709;28;20069;-42
2023/07/06 01:20:45;;;;;;;7.15;3.10;;;22.60;55.10;;;;;;5015840;28;20040;-43
2023/07/06 01:23:34;;;;;;;7.30;3.30;;;22.60;54.90;;;;;;5033534;28;20029;-43
2023/07/06 01:26:44;;;;;;;9.10;3.57;;;22.60;54.90;;;;;;5033348;28;20508;-41
2023/07/06 01:29:54;;;;;;;8.48;3.63;;;22.60;55.00;;;;;;4936998;29;20345;-43
2023/07/06 01:32:26;;;;;;;10.45;3.30;;;22.60;55.70;;;;;;4936889;29;20051;-41
2023/07/06 01:35:16;;;;;;;6.88;2.88;;;22.60;55.30;;;;;;4952563;29;20054;-42
2023/07/06 01:37:43;;;;;;;6.45;3.20;;;22.60;55.30;;;;;;4924109;29;20038;-42
2023/07/06 01:40:11;;;;;;;7.38;3.22;;;22.60;55.20;;;;;;4952651;29;20035;-44
2023/07/06 01:42:40;;;;;;;7.28;3.10;;;22.60;55.30;;;;;;4936864;29;20041;-42
2023/07/06 01:45:17;;;;;;;9.05;3.60;;;22.60;55.50;;;;;;4936443;29;20044;-43
2023/07/06 01:47:58;;;;;;;8.32;3.60;;;22.60;55.20;;;;;;4936597;29;20039;-41
2023/07/06 01:50:38;;;;;;;7.03;3.10;;;22.50;55.10;;;;;;4936568;29;20515;-42
2023/07/06 01:53:31;;;;;;;7.45;2.90;;;22.60;55.40;;;;;;4952456;28;20050;-45
2023/07/06 01:56:05;;;;;;;7.22;3.03;;;22.60;55.20;;;;;;4936443;28;20035;-44
2023/07/06 01:58:43;;;;;;;6.35;3.38;;;22.50;55.40;;;;;;4952405;29;20035;-45
2023/07/06 02:01:14;;;;;;;6.75;3.35;;;22.50;55.30;;;;;;5015243;28;20025;-43
2023/07/06 02:03:41;;;;;;;8.43;3.60;;;22.50;55.40;;;;;;5032353;28;20053;-44
2023/07/06 02:06:10;;;;;;;8.35;3.80;;;22.60;55.40;;;;;;5032112;28;20037;-44
2023/07/06 02:08:41;;;;;;;9.45;2.80;;;22.60;55.40;;;;;;5014923;28;20079;-44
2023/07/06 02:11:11;;;;;;;6.30;2.90;;;22.60;56.10;;;;;;5032684;28;20029;-43
2023/07/06 02:13:37;;;;;;;6.63;3.22;;;22.50;55.60;;;;;;5032234;28;20052;-47
2023/07/06 02:16:05;;;;;;;8.82;3.33;;;22.50;55.40;;;;;;5032096;28;20434;-49
2023/07/06 02:18:33;;;;;;;8.15;3.25;;;22.50;55.40;;;;;;5032634;28;20392;-52
2023/07/06 02:21:01;;;;;;;7.00;3.50;;;22.50;55.40;;;;;;5014655;28;20104;-48
2023/07/06 02:23:27;;;;;;;5.80;2.97;;;22.50;55.30;;;;;;5032229;28;20421;-48
2023/07/06 02:25:53;;;;;;;6.53;3.05;;;22.50;55.40;;;;;;5031994;28;20029;-47
2023/07/06 02:28:21;;;;;;;5.53;3.05;;;22.50;55.30;;;;;;5032209;28;20036;-49
2023/07/06 02:30:52;;;;;;;8.18;3.40;;;22.50;55.40;;;;;;5014552;28;20037;-44
2023/07/06 02:33:20;;;;;;;10.98;3.42;;;22.50;55.50;;;;;;5032183;28;20034;-47
2023/07/06 02:35:46;;;;;;;6.25;3.17;;;22.50;55.30;;;;;;5014318;28;20040;-52
2023/07/06 02:38:15;;;;;;;6.90;3.30;;;22.50;55.50;;;;;;5032009;28;20025;-50
2023/07/06 02:40:41;;;;;;;6.10;3.17;;;22.50;55.50;;;;;;5032082;28;20492;-53
2023/07/06 02:43:07;;;;;;;5.35;2.90;;;22.50;55.50;;;;;;5031931;28;20065;-50
2023/07/06 02:45:33;;;;;;;8.50;3.05;;;22.50;55.50;;;;;;5031711;28;20485;-46
2023/07/06 02:47:59;;;;;;;9.38;3.60;;;22.50;55.40;;;;;;5031830;28;20034;-47
2023/07/06 02:50:26;;;;;;;6.13;3.10;;;22.50;55.60;;;;;;5031905;28;20029;-50
2023/07/06 02:52:52;;;;;;;6.13;3.05;;;22.50;55.50;;;;;;5031849;28;20083;-44
2023/07/06 02:55:18;;;;;;;7.43;3.13;;;22.50;55.40;;;;;;5031597;28;20025;-44
2023/07/06 02:57:44;;;;;;;4.93;2.80;;;22.50;55.40;;;;;;5031656;28;20106;-50
2023/07/06 03:00:13;;;;;;;5.28;2.90;;;22.50;55.50;;;;;;5031723;28;20052;-47
2023/07/06 03:02:39;;;;;;;6.43;3.10;;;22.50;55.50;;;;;;5031777;28;20485;-47
2023/07/06 03:05:05;;;;;;;6.25;3.30;;;22.50;55.50;;;;;;5013759;28;20112;-44
2023/07/06 03:07:34;;;;;;;4.65;2.75;;;22.50;55.60;;;;;;5031580;28;20030;-45
2023/07/06 03:10:02;;;;;;;5.53;3.13;;;22.60;55.50;;;;;;5031556;28;20033;-44
2023/07/06 03:12:33;;;;;;;10.65;3.20;;;22.50;55.50;;;;;;5030193;28;20045;-46
2023/07/06 03:15:13;;;;;;;7.90;3.40;;;22.60;55.70;;;;;;5030814;28;20108;-45
2023/07/06 03:17:39;;;;;;;9.18;3.15;;;22.50;55.60;;;;;;5029486;28;20160;-50
2023/07/06 03:20:13;;;;;;;8.25;3.08;;;22.50;55.60;;;;;;5031063;28;20021;-44
2023/07/06 03:22:39;;;;;;;6.32;2.75;;;22.50;55.60;;;;;;5030362;28;20032;-44
2023/07/06 03:25:08;;;;;;;6.60;2.90;;;22.50;55.50;;;;;;5029903;28;20551;-43
2023/07/06 03:27:36;;;;;;;5.93;3.08;;;22.50;55.40;;;;;;5030200;28;20027;-45
2023/07/06 03:30:10;;;;;;;7.50;3.28;;;22.60;55.60;;;;;;5031459;28;20025;-43
2023/07/06 03:32:37;;;;;;;6.25;2.90;;;22.60;55.70;;;;;;5031380;28;20552;-43
2023/07/06 03:35:11;;;;;;;8.98;3.45;;;22.50;55.50;;;;;;5031123;28;20037;-44
2023/07/06 03:37:38;;;;;;;10.00;3.55;;;22.50;55.50;;;;;;5031261;28;20437;-44
2023/07/06 03:40:11;;;;;;;5.97;3.13;;;22.50;55.70;;;;;;5030139;28;20073;-44
2023/07/06 03:42:39;;;;;;;6.75;2.90;;;22.50;55.60;;;;;;5031509;28;20040;-44
2023/07/06 03:45:06;;;;;;;7.40;3.90;;;22.50;55.60;;;;;;5030980;28;20021;-47
2023/07/06 03:47:37;;;;;;;7.80;3.35;;;22.50;55.80;;;;;;5030002;28;20038;-44
2023/07/06 03:50:10;;;;;;;7.32;2.72;;;22.50;55.70;;;;;;5031199;28;20029;-47
2023/07/06 03:52:40;;;;;;;8.40;3.55;;;22.50;55.80;;;;;;5031205;28;20034;-44
2023/07/06 03:55:08;;;;;;;6.75;3.03;;;22.50;55.80;;;;;;5031013;28;20026;-44
2023/07/06 03:57:34;;;;;;;5.97;3.05;;;22.50;56.00;;;;;;5031125;28;20048;-47
2023/07/06 04:00:04;;;;;;;6.53;3.10;;;22.50;55.90;;;;;;5031224;28;20030;-44
2023/07/06 04:02:37;;;;;;;8.23;3.08;;;22.50;56.00;;;;;;5031479;28;20033;-44
2023/07/06 04:05:03;;;;;;;6.15;3.20;;;22.50;56.00;;;;;;5030806;28;20048;-43
2023/07/06 04:07:29;;;;;;;5.78;2.90;;;22.50;55.90;;;;;;5031147;28;20044;-44
2023/07/06 04:09:56;;;;;;;7.30;3.30;;;22.50;56.60;;;;;;5031006;28;20022;-45
2023/07/06 04:12:22;;;;;;;7.80;3.40;;;22.50;56.20;;;;;;5030940;28;20036;-44
2023/07/06 04:14:47;;;;;;;6.15;3.38;;;22.50;56.10;;;;;;5030741;28;20021;-44
2023/07/06 04:17:16;;;;;;;7.45;3.33;;;22.50;56.10;;;;;;5056259;23;20098;-46
2023/07/06 04:19:42;;;;;;;7.03;3.23;;;22.50;56.00;;;;;;5030642;28;20105;-46
2023/07/06 04:22:08;;;;;;;5.25;2.92;;;22.50;56.50;;;;;;5030882;28;20025;-51
2023/07/06 04:24:34;;;;;;;6.57;3.40;;;22.50;56.00;;;;;;5030608;28;20033;-49
2023/07/06 04:27:00;;;;;;;8.57;3.92;;;22.50;56.00;;;;;;5025607;28;20073;-49
2023/07/06 04:29:29;;;;;;;6.50;3.25;;;22.50;56.20;;;;;;5011579;28;20053;-45
2023/07/06 04:31:58;;;;;;;6.10;3.33;;;22.50;56.20;;;;;;5014687;28;20420;-46
2023/07/06 04:34:24;;;;;;;13.02;4.10;;;22.50;56.20;;;;;;5014456;28;20038;-49
2023/07/06 04:36:50;;;;;;;7.53;3.53;;;22.50;56.30;;;;;;5014602;28;20014;-45
2023/07/06 04:39:15;;;;;;;6.95;3.65;;;22.50;56.30;;;;;;5014526;28;20040;-49
2023/07/06 04:41:43;;;;;;;6.80;3.97;;;22.50;56.10;;;;;;5014377;28;20034;-49
2023/07/06 04:44:10;;;;;;;8.90;4.00;;;22.50;56.10;;;;;;5014155;28;20077;-49
2023/07/06 04:46:37;;;;;;;9.82;3.75;;;22.50;56.00;;;;;;5014473;28;20072;-46
2023/07/06 04:49:03;;;;;;;5.60;3.15;;;22.50;56.30;;;;;;5014547;28;20030;-45
2023/07/06 04:51:29;;;;;;;11.48;3.85;;;22.50;56.30;;;;;;5014279;28;20029;-45
2023/07/06 04:53:55;;;;;;;9.38;3.95;;;22.50;56.40;;;;;;5013916;28;20564;-45
2023/07/06 04:56:21;;;;;;;6.22;3.40;;;22.50;56.10;;;;;;5014201;28;20018;-48
2023/07/06 04:58:47;;;;;;;6.82;3.97;;;22.50;56.20;;;;;;5014179;28;20493;-45
2023/07/06 05:01:14;;;;;;;7.35;3.88;;;22.60;56.70;;;;;;5014101;28;20498;-46
2023/07/06 05:03:41;;;;;;;5.88;3.17;;;22.50;56.50;;;;;;5013793;28;20146;-51
2023/07/06 05:06:12;;;;;;;9.63;3.60;;;22.50;56.40;;;;;;5014197;28;20034;-45
2023/07/06 05:08:39;;;;;;;7.55;3.92;;;22.50;56.40;;;;;;5013867;28;20026;-49
2023/07/06 05:11:06;;;;;;;6.25;3.50;;;22.50;56.40;;;;;;5013925;28;20038;-46
2023/07/06 05:13:32;;;;;;;7.22;3.53;;;22.50;56.50;;;;;;5013516;28;20069;-48
2023/07/06 05:15:58;;;;;;;6.53;3.63;;;22.50;56.40;;;;;;4996250;28;20026;-46
2023/07/06 05:18:24;;;;;;;8.02;3.97;;;22.60;56.40;;;;;;5013650;28;20037;-47
2023/07/06 05:20:51;;;;;;;8.50;4.10;;;22.50;56.40;;;;;;5013693;28;20021;-46
2023/07/06 05:23:19;;;;;;;9.57;3.70;;;22.50;56.50;;;;;;5013415;28;20060;-49
2023/07/06 05:25:45;;;;;;;10.32;3.78;;;22.50;56.30;;;;;;5013599;28;20033;-48
2023/07/06 05:28:11;;;;;;;9.93;4.00;;;22.50;56.50;;;;;;5013670;28;20113;-50
2023/07/06 05:30:42;;;;;;;6.60;3.60;;;22.50;56.60;;;;;;5013594;28;20116;-51
2023/07/06 05:33:08;;;;;;;8.23;3.97;;;22.50;56.40;;;;;;5013385;28;20037;-49
2023/07/06 05:35:35;;;;;;;7.22;3.85;;;22.50;56.50;;;;;;5013096;28;20124;-50
2023/07/06 05:38:00;;;;;;;7.25;4.03;;;22.50;56.50;;;;;;5013267;28;20399;-47
2023/07/06 05:40:27;;;;;;;8.20;4.10;;;22.50;56.40;;;;;;5013422;28;20036;-45
2023/07/06 05:42:57;;;;;;;10.30;3.67;;;22.50;56.50;;;;;;5012380;28;20026;-46
2023/07/06 05:45:24;;;;;;;7.20;3.75;;;22.50;56.40;;;;;;5012957;28;20040;-49
2023/07/06 05:47:50;;;;;;;8.98;3.92;;;22.50;57.00;;;;;;5012717;28;20033;-46
2023/07/06 05:50:16;;;;;;;8.82;4.05;;;22.50;57.30;;;;;;5013244;28;20457;-48
2023/07/06 05:52:42;;;;;;;11.35;4.63;;;22.60;57.90;;;;;;4995589;28;20041;-46
2023/07/06 05:55:09;;;;;;;13.80;4.68;;;22.60;58.30;;;;;;5012823;28;20150;-46
2023/07/06 05:57:35;;;;;;;13.27;4.20;;;22.60;58.40;;;;;;5013060;28;20034;-47
2023/07/06 06:00:01;;;;;;;12.00;3.17;;;22.60;58.40;;;;;;5012953;28;20029;-47
2023/07/06 06:02:30;;;;;;;9.35;3.22;;;22.50;57.00;;;;;;5013075;28;20557;-45
2023/07/06 06:04:56;;;;;;;8.45;3.30;;;22.50;57.30;;;;;;5012825;28;20065;-48
2023/07/06 06:07:22;;;;;;;10.52;3.17;;;22.50;56.50;;;;;;4995340;28;20038;-45
2023/07/06 06:09:48;;;;;;;7.80;3.00;;;22.50;56.20;;;;;;5013285;28;20081;-48
2023/07/06 06:12:21;;;;;;;7.55;3.20;;;22.40;56.90;;;;;;5012754;28;20030;-51
2023/07/06 06:14:48;;;;;;;14.13;3.10;;;22.40;56.30;;;;;;4992796;28;20141;-50
2023/07/06 06:17:16;;;;;;;10.90;3.60;;;22.50;56.90;;;;;;5011260;28;20033;-47
2023/07/06 06:19:42;;;;;;;14.38;3.22;;;22.40;55.50;;;;;;5011934;28;20079;-47
2023/07/06 06:22:11;;;;;;;12.45;3.83;;;22.40;55.70;;;;;;5028453;28;20029;-53
2023/07/06 06:24:39;;;;;;;33.70;3.97;;;22.40;54.90;;;;;;5010524;28;20026;-49
2023/07/06 06:27:05;;;;;;;14.15;4.28;;;22.50;56.10;;;;;;5011193;28;20172;-52
2023/07/06 06:29:33;;;;;;;12.85;3.45;;;22.50;54.70;;;;;;5012728;28;20041;-47
2023/07/06 06:32:01;;;;;;;12.63;3.38;;;22.50;55.20;;;;;;5011377;28;20501;-50
2023/07/06 06:34:27;;;;;;;10.63;3.38;;;22.50;55.50;;;;;;5011761;28;20054;-52
2023/07/06 06:36:53;;;;;;;14.43;4.18;;;22.50;55.50;;;;;;5012307;28;20583;-51
2023/07/06 06:39:19;;;;;;;8.68;3.00;;;22.50;55.30;;;;;;5012330;28;20482;-52
2023/07/06 06:41:46;;;;;;;14.57;3.63;;;22.50;55.50;;;;;;5012175;28;20029;-51
2023/07/06 06:44:16;;;;;;;13.35;3.25;;;22.50;55.60;;;;;;4994399;28;20030;-50
2023/07/06 06:46:41;;;;;;;7.93;3.13;;;22.50;55.60;;;;;;5012161;28;20409;-51
2023/07/06 06:49:07;;;;;;;12.65;3.20;;;22.50;55.60;;;;;;5012291;28;20389;-51
2023/07/06 06:51:34;;;;;;;9.60;3.28;;;22.50;55.70;;;;;;5012086;28;20144;-49
2023/07/06 06:54:00;;;;;;;8.70;3.05;;;22.50;55.50;;;;;;5011618;28;20026;-47
2023/07/06 06:56:26;;;;;;;11.13;3.10;;;22.50;55.80;;;;;;5012046;28;20026;-50
2023/07/06 06:58:52;;;;;;;10.45;2.97;;;22.50;55.70;;;;;;4994582;28;20049;-51
2023/07/06 07:01:18;;;;;;;7.10;2.90;;;22.50;55.60;;;;;;5012121;28;20049;-48
2023/07/06 07:03:45;;;;;;;8.02;2.72;;;22.50;55.60;;;;;;5011666;28;20034;-52
2023/07/06 07:06:12;;;;;;;6.35;2.90;;;22.50;55.80;;;;;;5011797;28;20061;-50
2023/07/06 07:08:39;;;;;;;7.97;2.88;;;22.50;55.80;;;;;;5011696;28;20596;-50
2023/07/06 07:11:06;;;;;;;11.50;3.30;;;22.50;55.80;;;;;;5012067;28;20026;-51
2023/07/06 07:13:33;;;;;;;7.20;2.63;;;22.60;56.10;;;;;;5011452;28;20080;-49
2023/07/06 07:15:59;;;;;;;10.20;3.50;;;22.50;55.90;;;;;;5011800;28;20393;-51
2023/07/06 07:18:25;;;;;;;10.38;3.00;;;22.50;56.20;;;;;;5011595;28;20030;-50
2023/07/06 07:20:51;;;;;;;7.93;2.88;;;22.50;56.30;;;;;;5011768;28;20121;-50
2023/07/06 07:23:24;;;;;;;8.98;3.05;;;22.50;56.30;;;;;;5011491;28;20130;-51
2023/07/06 07:25:50;;;;;;;7.90;3.00;;;22.50;56.30;;;;;;5011581;28;20054;-47
2023/07/06 07:28:17;;;;;;;6.78;2.95;;;22.50;56.10;;;;;;5011366;28;20059;-47
2023/07/06 07:30:54;;;;;;;7.97;2.90;;;22.50;56.20;;;;;;5011781;28;20054;-50
2023/07/06 07:33:20;;;;;;;8.77;2.83;;;22.50;56.20;;;;;;4977999;28;20088;-51
2023/07/06 07:35:46;;;;;;;7.85;3.20;;;22.50;56.30;;;;;;5011434;28;20030;-50
2023/07/06 07:38:12;;;;;;;6.03;2.70;;;22.60;56.30;;;;;;5011506;28;20022;-49
2023/07/06 07:40:38;;;;;;;10.18;3.00;;;22.50;56.30;;;;;;5011569;28;20037;-50
2023/07/06 07:43:04;;;;;;;8.23;2.83;;;22.50;56.40;;;;;;5011474;28;20037;-51
2023/07/06 07:45:29;;;;;;;6.03;2.70;;;22.50;56.30;;;;;;5011200;28;20049;-51
2023/07/06 07:47:56;;;;;;;7.82;2.80;;;22.60;56.50;;;;;;5011661;28;20034;-49
2023/07/06 07:50:22;;;;;;;8.55;2.90;;;22.50;56.40;;;;;;5011495;28;20121;-54
2023/07/06 07:52:48;;;;;;;5.35;2.65;;;22.50;56.30;;;;;;5011517;28;20153;-50
2023/07/06 07:55:15;;;;;;;6.65;2.85;;;22.60;56.20;;;;;;5011145;28;20037;-51
2023/07/06 07:57:40;;;;;;;5.03;2.42;;;22.50;56.30;;;;;;5011447;28;20034;-50
2023/07/06 08:00:09;;;;;;;6.13;2.60;;;22.50;56.20;;;;;;5011418;28;20030;-53
2023/07/06 08:02:40;;;;;;;7.05;2.90;;;22.50;56.20;;;;;;5011443;28;20552;-51
2023/07/06 08:05:07;;;;;;;6.15;2.72;;;22.60;56.20;;;;;;4978771;28;20119;-52
2023/07/06 08:07:32;;;;;;;5.70;2.50;;;22.50;56.10;;;;;;5015200;28;20026;-50
2023/07/06 08:09:58;;;;;;;6.30;2.65;;;22.50;56.20;;;;;;5015293;28;20057;-52
2023/07/06 08:12:24;;;;;;;5.15;2.53;;;22.60;56.20;;;;;;5014979;28;20509;-53
2023/07/06 08:14:50;;;;;;;5.22;2.40;;;22.60;56.20;;;;;;4981170;28;20403;-52
2023/07/06 08:17:17;;;;;;;6.78;2.53;;;22.60;56.20;;;;;;5014783;28;20404;-52
2023/07/06 08:19:45;;;;;;;7.72;2.95;;;22.60;56.20;;;;;;5014903;28;20033;-51
2023/07/06 08:22:11;;;;;;;5.55;2.65;;;22.50;56.10;;;;;;5014879;28;20033;-53
2023/07/06 08:24:38;;;;;;;6.22;2.92;;;22.60;56.20;;;;;;5014540;28;20378;-50
2023/07/06 08:27:04;;;;;;;4.75;2.38;;;22.60;56.20;;;;;;5014533;28;20105;-50
2023/07/06 08:29:31;;;;;;;6.35;2.70;;;22.60;56.20;;;;;;5014776;28;20026;-52
2023/07/06 08:31:58;;;;;;;3.88;2.40;;;22.60;56.30;;;;;;5014791;28;20034;-52
2023/07/06 08:34:26;;;;;;;6.15;2.33;;;22.60;56.20;;;;;;5014513;28;20023;-51
2023/07/06 08:36:53;;;;;;;4.43;2.30;;;22.50;56.20;;;;;;5014603;28;20030;-48
2023/07/06 08:39:19;;;;;;;4.35;2.28;;;22.50;56.30;;;;;;4964898;28;20022;-49
2023/07/06 08:41:47;;;;;;;6.32;2.72;;;22.60;56.20;;;;;;5014570;28;20041;-49
2023/07/06 08:44:15;;;;;;;5.35;2.70;;;22.50;56.20;;;;;;5014229;28;20057;-51
2023/07/06 08:46:45;;;;;;;5.55;2.60;;;22.60;56.30;;;;;;5014362;28;20485;-47
2023/07/06 08:49:26;;;;;;;7.32;2.72;;;22.60;56.30;;;;;;5014441;28;20059;-51
2023/07/06 08:51:53;;;;;;;6.03;2.53;;;22.60;56.30;;;;;;5014244;28;20101;-52
2023/07/06 08:54:22;;;;;;;4.65;2.10;;;22.60;56.40;;;;;;5014064;28;20037;-46
2023/07/06 08:56:49;;;;;;;5.13;2.47;;;22.60;56.40;;;;;;5014206;28;20034;-48
2023/07/06 08:59:39;;;;;;;6.60;2.70;;;22.60;56.40;;;;;;5014222;28;20026;-50
2023/07/06 09:02:24;;;;;;;4.22;2.30;;;22.50;56.40;;;;;;5013777;28;20100;-52
2023/07/06 09:04:52;;;;;;;4.93;2.67;;;22.60;56.60;;;;;;5014057;28;20034;-48
2023/07/06 09:07:22;;;;;;;5.88;2.60;;;22.50;56.70;;;;;;5014027;28;20401;-49
2023/07/06 09:09:49;;;;;;;5.82;2.63;;;22.50;56.60;;;;;;5014222;28;20456;-45
2023/07/06 09:12:23;;;;;;;5.75;2.50;;;22.60;56.70;;;;;;5014831;28;20441;-48
2023/07/06 09:14:50;;;;;;;4.85;2.72;;;22.50;56.60;;;;;;5014028;28;20482;-49
2023/07/06 09:17:16;;;;;;;5.10;2.20;;;22.50;56.50;;;;;;5013640;28;20041;-49
2023/07/06 09:19:44;;;;;;;8.20;2.70;;;22.50;56.60;;;;;;5013698;28;20026;-49
2023/07/06 09:22:10;;;;;;;5.15;2.38;;;22.50;56.60;;;;;;5013867;28;20025;-52
2023/07/06 09:24:36;;;;;;;6.20;2.47;;;22.50;56.50;;;;;;5013473;28;20041;-51
2023/07/06 09:27:09;;;;;;;3.75;2.35;;;22.60;56.50;;;;;;5013597;28;20045;-48
2023/07/06 09:29:37;;;;;;;5.07;2.38;;;22.60;56.50;;;;;;5013648;28;20035;-53
2023/07/06 09:32:12;;;;;;;5.95;2.00;;;22.60;56.50;;;;;;5013450;28;20113;-51
2023/07/06 09:34:44;;;;;;;4.97;2.20;;;22.60;56.50;;;;;;5013341;28;20034;-46
2023/07/06 09:37:12;;;;;;;4.43;2.22;;;22.60;56.40;;;;;;5013585;28;20445;-51
2023/07/06 09:39:39;;;;;;;4.82;2.40;;;22.50;56.30;;;;;;5013529;28;20022;-49
2023/07/06 09:42:08;;;;;;;3.17;2.10;;;22.60;56.40;;;;;;5013450;28;20041;-53
2023/07/06 09:44:34;;;;;;;4.43;2.17;;;22.60;56.40;;;;;;5013009;28;20544;-50
2023/07/06 09:47:01;;;;;;;4.22;2.35;;;22.60;56.50;;;;;;5013201;28;20034;-52
2023/07/06 09:49:32;;;;;;;4.90;2.25;;;22.60;56.40;;;;;;5013326;28;20077;-51
2023/07/06 09:52:00;;;;;;;3.47;2.25;;;22.60;56.50;;;;;;5013372;28;20038;-51
2023/07/06 09:54:40;;;;;;;4.20;2.10;;;22.60;56.50;;;;;;5013174;28;20034;-51
2023/07/06 09:57:17;;;;;;;5.53;2.42;;;22.60;56.40;;;;;;5013266;28;20033;-52
2023/07/06 09:59:46;;;;;;;4.28;2.40;;;22.60;56.50;;;;;;5013518;28;20057;-49
2023/07/06 10:02:28;;;;;;;4.30;2.25;;;22.60;56.50;;;;;;5013128;28;20100;-52
2023/07/06 10:05:11;;;;;;;3.72;2.30;;;22.60;56.50;;;;;;5012790;28;20120;-49
2023/07/06 10:08:02;;;;;;;6.60;2.17;;;22.50;56.50;;;;;;5012828;28;20033;-50
2023/07/06 10:10:50;;;;;;;4.35;2.28;;;22.60;56.70;;;;;;5013154;28;20085;-51
2023/07/06 10:13:36;;;;;;;6.10;2.58;;;22.50;56.70;;;;;;5012741;28;20030;-52
2023/07/06 10:16:33;;;;;;;3.50;2.17;;;22.50;56.60;;;;;;5012326;28;20046;-50
2023/07/06 10:19:18;;;;;;;5.70;2.25;;;22.50;56.70;;;;;;5052238;23;20096;-47
2023/07/06 10:22:07;;;;;;;4.72;2.47;;;22.50;56.70;;;;;;5014899;28;20029;-48
2023/07/06 10:24:45;;;;;;;3.87;2.30;;;22.50;56.90;;;;;;5032218;28;20053;-48
2023/07/06 10:27:21;;;;;;;4.05;1.83;;;22.50;56.70;;;;;;5028472;28;20034;-44
2023/07/06 10:29:54;;;;;;;5.00;2.50;;;22.60;56.80;;;;;;5012463;28;20432;-51
2023/07/06 10:32:31;;;;;;;2.97;2.05;;;22.50;56.70;;;;;;5012676;28;20481;-46
2023/07/06 10:35:15;;;;;;;7.38;2.35;;;22.60;56.80;;;;;;5012170;28;20026;-45
2023/07/06 10:37:42;;;;;;;4.82;2.00;;;22.60;56.70;;;;;;5012735;28;20053;-47
2023/07/06 10:40:25;;;;;;;3.78;2.30;;;22.50;56.70;;;;;;4994914;28;20050;-46
2023/07/06 10:43:11;;;;;;;3.92;2.03;;;22.60;56.80;;;;;;5012408;28;20040;-48
2023/07/06 10:45:51;;;;;;;3.45;2.22;;;22.60;56.90;;;;;;5011886;28;20021;-46
2023/07/06 10:48:34;;;;;;;5.28;2.28;;;22.60;56.70;;;;;;5011986;28;20501;-43
2023/07/06 10:51:06;;;;;;;4.93;2.28;;;22.50;56.60;;;;;;5012276;28;20120;-48
2023/07/06 10:53:47;;;;;;;4.28;2.15;;;22.60;56.90;;;;;;5011733;28;20029;-47
2023/07/06 10:56:21;;;;;;;4.43;2.20;;;22.60;56.70;;;;;;5012128;28;20046;-47
2023/07/06 10:58:55;;;;;;;4.90;2.20;;;22.60;56.70;;;;;;5012009;28;20033;-44
2023/07/06 11:01:29;;;;;;;4.22;2.53;;;22.50;56.70;;;;;;5012431;28;20188;-47
2023/07/06 11:03:55;;;;;;;3.90;2.10;;;22.50;56.70;;;;;;5011777;28;20037;-48
2023/07/06 11:06:40;;;;;;;3.75;2.22;;;22.50;56.70;;;;;;4994396;28;20033;-50
2023/07/06 11:09:08;;;;;;;5.13;2.35;;;22.50;56.70;;;;;;5011883;28;20022;-45
2023/07/06 11:11:49;;;;;;;3.17;2.13;;;22.50;56.60;;;;;;5011785;28;20375;-44
2023/07/06 11:14:23;;;;;;;5.53;2.53;;;22.50;56.70;;;;;;4993948;28;20029;-51
2023/07/06 11:17:26;;;;;;;3.10;2.13;;;22.50;56.70;;;;;;5011787;28;20022;-48
2023/07/06 11:20:16;;;;;;;6.18;3.08;;;22.50;56.70;;;;;;5001213;28;20036;-49
2023/07/06 11:22:45;;;;;;;4.35;2.40;;;22.50;56.80;;;;;;5011672;28;20311;-51
2023/07/06 11:25:14;;;;;;;4.18;2.10;;;22.50;56.70;;;;;;4993846;28;20151;-47
2023/07/06 11:27:45;;;;;;;5.40;2.60;;;22.50;56.60;;;;;;4994002;28;20030;-51
2023/07/06 11:30:22;;;;;;;3.35;2.42;;;22.50;56.60;;;;;;5011566;28;20033;-50
2023/07/06 11:33:06;;;;;;;3.70;2.08;;;22.50;56.80;;;;;;5011567;28;20124;-51
2023/07/06 11:35:35;;;;;;;3.28;2.20;;;22.50;56.60;;;;;;4993799;28;20053;-43
2023/07/06 11:38:26;;;;;;;4.13;2.42;;;22.50;56.70;;;;;;5011723;28;20080;-49
2023/07/06 11:41:15;;;;;;;4.28;2.30;;;22.50;56.70;;;;;;5014324;28;20037;-48
2023/07/06 11:44:13;;;;;;;3.95;1.90;;;22.50;56.70;;;;;;5014758;28;20115;-49
2023/07/06 11:46:51;;;;;;;4.65;2.50;;;22.50;56.80;;;;;;5015495;28;20037;-48
2023/07/06 11:49:25;;;;;;;4.13;2.58;;;22.50;56.80;;;;;;5015522;28;20033;-49
2023/07/06 11:51:51;;;;;;;3.95;2.45;;;22.50;56.40;;;;;;5015695;28;20469;-48
2023/07/06 11:55:05;;;;;;;4.60;2.50;;;22.50;56.70;;;;;;5015029;28;20026;-45
2023/07/06 11:57:44;;;;;;;3.47;2.10;;;22.50;56.80;;;;;;5009534;28;20041;-45
2023/07/06 12:03:09;;;;;;;5.57;2.33;;;22.50;56.60;;;;;;5015226;28;20553;-48
2023/07/06 12:05:38;;;;;;;3.42;2.22;;;22.50;57.00;;;;;;5015028;28;20397;-45
2023/07/06 12:08:16;;;;;;;4.32;2.40;;;22.50;57.00;;;;;;4997930;28;20030;-44
2023/07/06 12:10:45;;;;;;;4.32;2.20;;;22.50;56.80;;;;;;5015144;28;20026;-46
2023/07/06 12:13:21;;;;;;;3.75;2.33;;;22.50;56.90;;;;;;5014860;28;20030;-46
2023/07/06 12:15:49;;;;;;;3.95;2.13;;;22.50;56.70;;;;;;5014879;28;20026;-45
2023/07/06 12:18:15;;;;;;;3.80;2.33;;;22.50;56.90;;;;;;5014753;28;20057;-44
2023/07/06 12:20:42;;;;;;;3.20;2.20;;;22.50;56.90;;;;;;5014877;28;20022;-44
2023/07/06 12:23:12;;;;;;;5.03;2.45;;;22.50;56.80;;;;;;5014786;28;20026;-43
2023/07/06 12:25:41;;;;;;;3.60;2.28;;;22.50;57.00;;;;;;5014686;28;20121;-43
2023/07/06 12:28:11;;;;;;;4.10;2.30;;;22.50;56.70;;;;;;5014471;28;20152;-43
2023/07/06 12:30:39;;;;;;;5.43;2.45;;;22.50;56.90;;;;;;5014690;28;20030;-45
2023/07/06 12:33:10;;;;;;;3.65;2.20;;;22.50;56.70;;;;;;5014516;28;20061;-43
2023/07/06 12:35:37;;;;;;;3.35;2.30;;;22.50;56.50;;;;;;5014356;28;20028;-43
2023/07/06 12:38:09;;;;;;;4.03;2.22;;;22.50;56.50;;;;;;5014509;28;20026;-45
2023/07/06 12:40:36;;;;;;;4.03;2.28;;;22.50;56.70;;;;;;5014539;28;20026;-44
2023/07/06 12:43:03;;;;;;;4.03;2.05;;;22.50;56.60;;;;;;5014406;28;20432;-46
2023/07/06 12:45:30;;;;;;;4.50;2.47;;;22.50;56.50;;;;;;5014218;28;20029;-43
2023/07/06 12:48:03;;;;;;;7.60;2.33;;;22.50;56.50;;;;;;5014745;28;20061;-44
2023/07/06 12:50:37;;;;;;;2.95;2.00;;;22.50;56.40;;;;;;5014026;28;20057;-43
2023/07/06 12:53:11;;;;;;;4.15;2.25;;;22.50;56.50;;;;;;5014219;28;20382;-43
2023/07/06 12:55:41;;;;;;;4.90;2.38;;;22.50;56.60;;;;;;5014122;28;20108;-46
2023/07/06 12:58:15;;;;;;;3.08;2.30;;;22.50;56.50;;;;;;5013999;28;20076;-44
2023/07/06 13:00:47;;;;;;;3.00;2.13;;;22.50;56.50;;;;;;5014296;28;20053;-44
2023/07/06 13:03:13;;;;;;;5.13;2.45;;;22.50;56.60;;;;;;5014018;28;20104;-45
2023/07/06 13:05:39;;;;;;;3.25;2.08;;;22.50;56.40;;;;;;5013915;28;20109;-45